Time;durP1;ratioP1;P1;durP2;ratioP2;P2;SDS_P1;SDS_P2;PMS_P1;PMS_P2;Temp;Humidity;BMP_temperature;BMP_pressure;BME280_temperature;BME280_humidity;BME280_pressure;Samples;Min_cycle;Max_cycle;Signal;HPM_P1;HPM_P2
2023/01/25 00:01:05;;;;;;;8.18;3.10;;;;;;;0.18;100.00;101528.63;6321120;28;20042;-76
2023/01/25 00:04:06;;;;;;;4.65;3.22;;;;;;;0.17;100.00;101525.22;6322110;28;20036;-70
2023/01/25 00:07:07;;;;;;;5.80;2.42;;;;;;;0.19;100.00;101523.53;6320673;28;20051;-70
2023/01/25 00:10:11;;;;;;;5.60;3.33;;;;;;;0.13;100.00;101523.47;6320704;28;20032;-76
2023/01/25 00:13:12;;;;;;;4.45;2.65;;;;;;;0.12;100.00;101528.59;6320892;28;20137;-77
2023/01/25 00:16:13;;;;;;;3.88;2.17;;;;;;;0.06;100.00;101526.84;6313729;28;20536;-76
2023/01/25 00:19:13;;;;;;;3.65;1.75;;;;;;;-0.02;100.00;101536.25;6314442;28;20055;-70
2023/01/25 00:22:14;;;;;;;4.22;2.35;;;;;;;-0.04;100.00;101538.78;6320692;28;20044;-71
2023/01/25 00:25:15;;;;;;;3.45;2.13;;;;;;;-0.01;100.00;101541.38;6320710;28;20466;-76
2023/01/25 00:28:16;;;;;;;3.10;2.03;;;;;;;-0.03;100.00;101537.94;6320722;28;20052;-77
2023/01/25 00:31:37;;;;;;;4.38;1.92;;;;;;;-0.06;100.00;101537.91;6321697;28;20036;-70
2023/01/25 00:34:46;;;;;;;4.18;1.85;;;;;;;-0.05;100.00;101542.19;6298918;28;20048;-70
2023/01/25 00:37:50;;;;;;;6.32;2.63;;;;;;;-0.09;100.00;101547.31;6316004;28;20399;-70
2023/01/25 00:40:51;;;;;;;4.72;1.80;;;;;;;-0.15;100.00;101537.84;6324651;28;20040;-70
2023/01/25 00:43:55;;;;;;;7.13;3.15;;;;;;;-0.21;100.00;101542.94;6324901;28;20043;-70
2023/01/25 00:46:56;;;;;;;9.88;2.63;;;;;;;-0.24;100.00;101538.66;6325907;28;20056;-70
2023/01/25 00:49:57;;;;;;;3.22;1.65;;;;;;;-0.20;100.00;101549.78;6326288;28;20127;-70
2023/01/25 00:52:58;;;;;;;2.33;1.90;;;;;;;-0.20;100.00;101542.09;6325082;28;20035;-70
2023/01/25 00:55:58;;;;;;;5.00;2.22;;;;;;;-0.22;100.00;101536.09;6325053;28;20043;-76
2023/01/25 00:58:59;;;;;;;2.47;1.83;;;;;;;-0.26;100.00;101534.34;6326124;28;20051;-70
2023/01/25 01:02:00;;;;;;;2.83;1.65;;;;;;;-0.22;100.00;101541.22;6325984;28;20119;-70
2023/01/25 01:05:01;;;;;;;4.70;2.33;;;;;;;-0.29;100.00;101539.44;6324813;28;20043;-77
2023/01/25 01:08:02;;;;;;;11.73;3.08;;;;;;;-0.30;100.00;101543.72;6324709;28;20052;-70
2023/01/25 01:11:06;;;;;;;3.47;2.08;;;;;;;-0.26;100.00;101542.91;6324535;28;20052;-77
2023/01/25 01:14:06;;;;;;;3.90;2.63;;;;;;;-0.25;100.00;101543.75;6325567;28;20124;-70
2023/01/25 01:17:07;;;;;;;3.28;1.95;;;;;;;-0.26;100.00;101544.63;6325709;28;20032;-76
2023/01/25 01:20:08;;;;;;;3.15;1.98;;;;;;;-0.27;100.00;101538.63;6324309;28;20127;-70
2023/01/25 01:23:13;;;;;;;4.18;2.20;;;;;;;-0.23;100.00;101542.94;6325432;28;20093;-70
2023/01/25 01:26:18;;;;;;;1.13;1.02;;;;;;;-0.20;100.00;101534.41;6325082;28;20449;-76
2023/01/25 01:29:19;;;;;;;2.92;2.17;;;;;;;-0.19;100.00;101537.81;6324294;28;20044;-76
2023/01/25 01:32:19;;;;;;;2.03;1.55;;;;;;;-0.24;100.00;101541.22;6324130;28;20480;-70
2023/01/25 01:35:20;;;;;;;5.20;2.00;;;;;;;-0.22;100.00;101539.50;6324120;28;20128;-76
2023/01/25 01:38:21;;;;;;;2.67;1.63;;;;;;;-0.28;100.00;101523.22;6323819;28;20036;-70
2023/01/25 01:41:22;;;;;;;3.08;1.98;;;;;;;-0.32;100.00;101519.78;6324630;28;20044;-71
2023/01/25 01:44:46;;;;;;;1.33;1.23;;;;;;;-0.34;100.00;101520.63;6323542;28;20036;-70
2023/01/25 01:47:47;;;;;;;9.45;2.03;;;;;;;-0.32;100.00;101518.94;6324328;28;20056;-70
2023/01/25 01:50:54;;;;;;;3.22;1.20;;;;;;;-0.33;100.00;101517.19;6324795;28;20446;-70
2023/01/25 01:54:09;;;;;;;10.25;1.92;;;;;;;-0.34;100.00;101500.94;6323523;28;20044;-77
2023/01/25 01:57:13;;;;;;;3.70;1.42;;;;;;;-0.31;100.00;101507.81;6324214;28;20040;-77
2023/01/25 02:00:25;;;;;;;1.48;1.27;;;;;;;-0.34;100.00;101515.50;6323360;28;20043;-76
2023/01/25 02:03:28;;;;;;;8.25;1.88;;;;;;;-0.29;100.00;101514.69;6323497;28;20101;-76
2023/01/25 02:06:29;;;;;;;;;;;;;;;-0.25;100.00;101512.97;6324923;28;20083;-76
2023/01/25 02:09:34;;;;;;;1.00;0.63;;;;;;;-0.28;100.00;101506.13;6323071;28;20260;-76
2023/01/25 02:12:36;;;;;;;5.85;1.98;;;;;;;-0.27;100.00;101494.16;6323135;28;20181;-76
2023/01/25 02:15:43;;;;;;;1.15;0.85;;;;;;;-0.25;100.00;101498.47;6317270;28;20548;-76
2023/01/25 02:18:46;;;;;;;2.55;0.93;;;;;;;-0.39;100.00;101501.75;6297860;28;20115;-77
2023/01/25 02:21:49;;;;;;;2.53;1.70;;;;;;;-0.40;100.00;101503.47;6314687;28;20048;-70
2023/01/25 02:25:07;;;;;;;2.45;1.40;;;;;;;-0.46;100.00;101506.84;6298872;28;20044;-70
2023/01/25 02:28:17;;;;;;;1.45;1.10;;;;;;;-0.36;100.00;101502.66;6297372;28;20060;-70
2023/01/25 02:31:18;;;;;;;1.88;0.98;;;;;;;-0.28;100.00;101497.56;6303051;28;20449;-70
2023/01/25 02:34:19;;;;;;;2.88;1.77;;;;;;;-0.22;100.00;101501.03;6323739;28;20048;-76
2023/01/25 02:37:20;;;;;;;6.18;1.33;;;;;;;-0.18;100.00;101498.50;6323205;28;20076;-76
2023/01/25 02:40:21;;;;;;;1.40;1.30;;;;;;;-0.10;100.00;101487.44;6322047;28;20044;-76
2023/01/25 02:43:27;;;;;;;2.22;1.65;;;;;;;0.01;100.00;101486.63;6322401;28;20040;-76
2023/01/25 02:46:31;;;;;;;0.98;0.90;;;;;;;0.04;100.00;101479.78;6323974;28;20485;-76
2023/01/25 02:49:36;;;;;;;2.63;0.70;;;;;;;0.10;100.00;101482.38;6322992;28;20449;-76
2023/01/25 02:52:39;;;;;;;2.60;1.60;;;;;;;0.14;100.00;101488.41;6323084;28;20036;-76
2023/01/25 02:55:44;;;;;;;3.83;1.20;;;;;;;0.06;100.00;101484.94;6323402;28;20040;-76
2023/01/25 02:58:45;;;;;;;4.85;1.45;;;;;;;0.15;100.00;101487.56;6321214;28;20494;-70
2023/01/25 03:01:47;;;;;;;1.13;0.88;;;;;;;0.07;100.00;101487.50;6322127;28;20510;-76
2023/01/25 03:04:47;;;;;;;1.73;1.07;;;;;;;0.10;100.00;101491.81;6323289;28;20404;-76
2023/01/25 03:07:48;;;;;;;4.40;1.70;;;;;;;0.22;100.00;101491.84;6321828;28;20078;-76
2023/01/25 03:10:50;;;;;;;2.65;1.60;;;;;;;0.30;100.00;101482.47;6321639;28;20097;-76
2023/01/25 03:13:51;;;;;;;1.90;1.02;;;;;;;0.33;100.00;101481.63;6321939;28;20043;-76
2023/01/25 03:16:52;;;;;;;1.08;1.00;;;;;;;0.40;100.00;101484.22;6321441;28;20047;-76
2023/01/25 03:19:52;;;;;;;2.83;0.80;;;;;;;0.35;100.00;101485.06;6322866;28;20040;-76
2023/01/25 03:22:54;;;;;;;1.90;1.00;;;;;;;0.31;100.00;101491.03;6322773;28;20365;-70
2023/01/25 03:26:03;;;;;;;4.00;1.48;;;;;;;0.29;100.00;101483.34;6322458;28;20040;-76
2023/01/25 03:29:04;;;;;;;1.80;0.85;;;;;;;0.45;100.00;101480.81;6322008;28;20071;-70
2023/01/25 03:32:05;;;;;;;1.60;0.77;;;;;;;0.39;100.00;101484.22;6321474;28;20044;-70
2023/01/25 03:35:09;;;;;;;1.45;0.63;;;;;;;0.53;100.00;101487.69;6321369;28;20506;-76
2023/01/25 03:38:10;;;;;;;1.35;0.95;;;;;;;0.35;100.00;101473.09;6320748;28;20054;-70
2023/01/25 03:41:12;;;;;;;0.70;0.55;;;;;;;0.60;100.00;101473.19;6322283;28;20040;-76
2023/01/25 03:44:13;;;;;;;1.10;1.00;;;;;;;0.57;100.00;101466.31;6322284;28;20417;-71
2023/01/25 03:47:15;;;;;;;2.92;2.15;;;;;;;0.57;100.00;101475.72;6322473;28;20055;-70
2023/01/25 03:50:15;;;;;;;1.23;1.13;;;;;;;0.70;100.00;101471.47;6321086;28;20032;-76
2023/01/25 03:53:31;;;;;;;1.70;1.10;;;;;;;0.73;100.00;101467.22;6322462;28;20048;-76
2023/01/25 03:56:32;;;;;;;2.25;1.20;;;;;;;0.83;100.00;101462.94;6321661;28;20083;-76
2023/01/25 03:59:33;;;;;;;1.23;0.90;;;;;;;0.57;100.00;101456.03;6322129;28;20092;-76
2023/01/25 04:02:34;;;;;;;1.38;0.68;;;;;;;0.71;100.00;101462.94;6321182;28;20048;-76
2023/01/25 04:05:34;;;;;;;2.15;1.52;;;;;;;0.60;100.00;101458.63;6321005;28;20032;-76
2023/01/25 04:08:36;;;;;;;0.73;0.70;;;;;;;0.71;100.00;101461.22;6320545;28;20101;-70
2023/01/25 04:11:36;;;;;;;1.60;1.25;;;;;;;0.76;100.00;101467.22;6325498;28;20059;-76
2023/01/25 04:14:37;;;;;;;2.92;1.92;;;;;;;0.78;100.00;101459.50;6326072;28;20353;-70
2023/01/25 04:17:38;;;;;;;1.10;1.00;;;;;;;0.80;100.00;101470.63;6325812;28;20037;-76
2023/01/25 04:20:45;;;;;;;2.03;1.17;;;;;;;0.80;100.00;101468.94;6325308;28;20040;-70
2023/01/25 04:23:46;;;;;;;1.75;1.45;;;;;;;0.67;100.00;101468.91;6325860;28;20089;-76
2023/01/25 04:26:47;;;;;;;0.95;0.73;;;;;;;0.72;100.00;101457.81;6326846;28;20492;-76
2023/01/25 04:29:47;;;;;;;2.03;1.02;;;;;;;0.80;100.00;101457.78;6326454;28;20540;-76
2023/01/25 04:32:48;;;;;;;1.70;1.40;;;;;;;0.90;100.00;101462.09;6326728;28;20044;-76
2023/01/25 04:35:49;;;;;;;1.92;1.35;;;;;;;0.83;100.00;101464.69;6326679;28;20054;-76
2023/01/25 04:38:50;;;;;;;2.42;1.10;;;;;;;0.77;100.00;101455.22;6321627;28;20040;-70
2023/01/25 04:41:53;;;;;;;2.47;1.27;;;;;;;0.55;100.00;101454.31;6303791;28;20498;-70
2023/01/25 04:44:56;;;;;;;1.55;0.98;;;;;;;0.56;100.00;101448.34;6320149;28;20503;-76
2023/01/25 04:48:01;;;;;;;4.30;1.83;;;;;;;0.66;100.00;101452.66;6306963;28;20063;-70
2023/01/25 04:51:01;;;;;;;4.05;0.80;;;;;;;0.71;100.00;101442.38;6325679;28;20046;-70
2023/01/25 04:54:02;;;;;;;1.35;0.82;;;;;;;0.73;100.00;101441.50;6324885;28;20479;-70
2023/01/25 04:57:03;;;;;;;1.25;0.75;;;;;;;0.72;100.00;101459.50;6326407;28;20044;-76
2023/01/25 05:00:06;;;;;;;0.65;0.65;;;;;;;0.60;100.00;101442.38;6324758;28;20044;-76
2023/01/25 05:03:12;;;;;;;4.15;1.75;;;;;;;0.55;100.00;101454.31;6299707;28;20044;-71
2023/01/25 05:06:13;;;;;;;0.22;0.22;;;;;;;0.50;100.00;101456.03;6316109;28;20399;-76
2023/01/25 05:09:16;;;;;;;0.73;0.73;;;;;;;0.69;100.00;101452.63;6326087;28;20048;-76
2023/01/25 05:12:16;;;;;;;1.83;1.23;;;;;;;0.69;100.00;101457.78;6324468;28;20036;-76
2023/01/25 05:15:17;;;;;;;0.60;0.60;;;;;;;0.67;100.00;101461.22;6320559;28;20802;-76
2023/01/25 05:18:18;;;;;;;0.88;0.68;;;;;;;0.60;100.00;101465.47;6305015;28;20036;-70
2023/01/25 05:24:40;;;;;;;1.30;0.98;;;;;;;0.75;100.00;101473.22;6325075;28;20051;-71
2023/01/25 05:27:41;;;;;;;2.20;2.00;;;;;;;0.68;100.00;101465.47;6324777;28;20039;-70
2023/01/25 05:30:42;;;;;;;3.85;1.00;;;;;;;0.62;100.00;101458.63;6324664;28;20040;-76
2023/01/25 05:33:43;;;;;;;1.92;1.33;;;;;;;0.77;100.00;101457.81;6324524;28;20480;-71
2023/01/25 05:36:44;;;;;;;1.75;1.58;;;;;;;0.66;100.00;101464.63;6323244;28;20043;-70
2023/01/25 05:39:45;;;;;;;2.42;1.77;;;;;;;0.73;100.00;101462.06;6323115;28;20043;-71
2023/01/25 05:42:52;;;;;;;1.00;0.85;;;;;;;0.74;100.00;101457.78;6311951;28;20442;-76
2023/01/25 05:45:57;;;;;;;1.15;0.73;;;;;;;0.75;100.00;101455.22;6308273;28;20365;-76
2023/01/25 05:48:58;;;;;;;0.88;0.82;;;;;;;0.60;100.00;101463.75;6307568;28;20416;-70
2023/01/25 05:51:59;;;;;;;1.20;1.10;;;;;;;0.79;100.00;101463.81;6316707;28;20064;-70
2023/01/25 05:54:59;;;;;;;0.95;0.60;;;;;;;0.69;100.00;101462.06;6305589;28;20050;-70
2023/01/25 05:58:00;;;;;;;1.00;0.73;;;;;;;0.53;100.00;101466.31;6318919;28;20408;-70
2023/01/25 06:01:06;;;;;;;1.70;1.05;;;;;;;0.64;100.00;101482.63;6299577;28;20119;-76
2023/01/25 06:04:07;;;;;;;0.57;0.57;;;;;;;0.58;100.00;101474.91;6319440;28;20407;-76
2023/01/25 06:07:08;;;;;;;1.48;0.85;;;;;;;0.65;100.00;101470.63;6309937;28;20040;-70
2023/01/25 06:10:09;;;;;;;2.85;0.82;;;;;;;0.58;100.00;101467.19;6307128;28;20044;-70
2023/01/25 06:13:12;;;;;;;0.55;0.55;;;;;;;0.58;100.00;101480.03;6318295;28;20051;-76
2023/01/25 06:16:15;;;;;;;2.95;1.38;;;;;;;0.59;100.00;101479.16;6316946;28;20045;-70
2023/01/25 06:19:16;;;;;;;0.73;0.70;;;;;;;0.65;100.00;101479.19;6319407;28;20051;-71
2023/01/25 06:22:16;;;;;;;1.55;1.00;;;;;;;0.47;100.00;101479.13;6322601;28;20044;-76
2023/01/25 06:25:17;;;;;;;0.47;0.47;;;;;;;0.58;100.00;101482.59;6321262;28;20044;-70
2023/01/25 06:28:18;;;;;;;16.52;0.70;;;;;;;0.52;100.00;101488.56;6301091;28;20048;-76
2023/01/25 06:31:19;;;;;;;1.15;0.70;;;;;;;0.39;100.00;101487.66;6296823;28;20051;-70
2023/01/25 06:34:21;;;;;;;3.67;1.15;;;;;;;0.49;100.00;101480.84;6297840;28;20044;-76
2023/01/25 06:37:22;;;;;;;1.60;0.43;;;;;;;0.56;100.00;101489.44;6296470;28;20040;-70
2023/01/25 06:40:26;;;;;;;0.40;0.40;;;;;;;0.62;100.00;101497.16;6296212;28;20633;-70
2023/01/25 06:43:30;;;;;;;1.90;1.20;;;;;;;0.68;100.00;101493.72;6296502;28;20071;-76
2023/01/25 06:46:31;;;;;;;0.30;0.30;;;;;;;0.73;100.00;101492.91;6296329;28;20055;-71
2023/01/25 06:49:32;;;;;;;1.23;0.93;;;;;;;0.84;100.00;101497.22;6296174;28;20060;-71
2023/01/25 06:52:35;;;;;;;1.08;0.88;;;;;;;0.80;100.00;101498.91;6297192;28;20123;-70
2023/01/25 06:55:36;;;;;;;0.82;0.82;;;;;;;0.66;100.00;101493.75;6296205;28;20036;-76
2023/01/25 06:58:37;;;;;;;0.65;0.65;;;;;;;0.68;100.00;101486.91;6295939;28;20074;-70
2023/01/25 07:01:38;;;;;;;1.23;0.93;;;;;;;0.71;100.00;101488.63;6295928;28;20408;-76
2023/01/25 07:04:39;;;;;;;2.65;0.77;;;;;;;0.78;100.00;101483.50;6317812;28;20047;-76
2023/01/25 07:07:44;;;;;;;0.32;0.32;;;;;;;0.86;100.00;101490.38;6322137;28;20059;-70
2023/01/25 07:11:02;;;;;;;0.73;0.73;;;;;;;0.86;100.00;101485.22;6322010;28;20036;-76
2023/01/25 07:14:04;;;;;;;0.85;0.85;;;;;;;1.06;100.00;101492.97;6321827;28;20087;-76
2023/01/25 07:17:05;;;;;;;0.77;0.77;;;;;;;0.94;100.00;101491.22;6322022;28;21171;-76
2023/01/25 07:20:09;;;;;;;0.20;0.20;;;;;;;0.93;100.00;101484.41;6320970;28;20047;-76
2023/01/25 07:23:11;;;;;;;2.22;0.85;;;;;;;0.91;100.00;101488.69;6320767;28;20047;-70
2023/01/25 07:26:23;;;;;;;1.27;0.98;;;;;;;1.07;100.00;101487.84;6321780;28;20040;-70
2023/01/25 07:29:26;;;;;;;0.43;0.40;;;;;;;0.82;100.00;101489.50;6320587;28;20040;-76
2023/01/25 07:32:27;;;;;;;0.75;0.75;;;;;;;0.87;100.00;101484.38;6321720;28;20169;-70
2023/01/25 07:35:30;;;;;;;0.55;0.55;;;;;;;1.05;100.00;101475.81;6322033;28;20048;-70
2023/01/25 07:38:31;;;;;;;1.52;1.30;;;;;;;1.17;100.00;101486.13;6321609;28;20043;-70
2023/01/25 07:41:32;;;;;;;0.85;0.73;;;;;;;1.22;100.00;101473.28;6321542;28;20086;-71
2023/01/25 07:44:32;;;;;;;1.50;0.90;;;;;;;0.96;100.00;101480.09;6312143;28;20090;-70
2023/01/25 07:47:33;;;;;;;3.00;0.98;;;;;;;1.09;100.00;101493.84;6321693;28;20193;-76
2023/01/25 07:50:35;;;;;;;0.95;0.88;;;;;;;1.21;100.00;101487.81;6320396;28;20488;-70
2023/01/25 07:53:41;;;;;;;1.75;1.02;;;;;;;1.12;99.79;101483.53;6320157;28;20047;-71
2023/01/25 07:56:42;;;;;;;0.85;0.85;;;;;;;1.19;99.35;101485.28;6321435;28;20040;-71
2023/01/25 07:59:43;;;;;;;1.15;0.77;;;;;;;1.31;99.54;101480.97;6320043;28;20135;-70
2023/01/25 08:02:44;;;;;;;0.43;0.43;;;;;;;1.51;99.01;101480.97;6320241;28;20067;-76
2023/01/25 08:05:44;;;;;;;1.52;1.27;;;;;;;1.50;97.61;101482.69;6320137;28;20040;-70
2023/01/25 08:08:48;;;;;;;3.30;1.63;;;;;;;1.52;98.04;101480.97;6321390;28;20101;-70
2023/01/25 08:11:48;;;;;;;;;;;;;;;1.77;97.05;101480.94;6320324;28;20051;-76
2023/01/25 08:14:49;;;;;;;1.10;0.60;;;;;;;1.73;96.78;101482.69;6321216;28;19959;-70
2023/01/25 08:17:50;;;;;;;1.02;0.68;;;;;;;1.86;96.26;101480.06;6321161;28;20067;-76
2023/01/25 08:20:57;;;;;;;1.02;1.02;;;;;;;1.95;95.53;101474.88;6319942;28;20479;-70
2023/01/25 08:23:59;;;;;;;3.30;1.25;;;;;;;1.86;94.18;101469.78;6321107;28;20047;-76
2023/01/25 08:27:00;;;;;;;4.20;1.55;;;;;;;2.09;94.18;101477.44;6319955;28;20043;-71
2023/01/25 08:30:01;;;;;;;4.13;2.50;;;;;;;2.22;93.75;101477.41;6319948;28;20041;-72
2023/01/25 08:33:02;;;;;;;2.20;1.70;;;;;;;2.03;93.57;101480.03;6319814;28;20434;-76
2023/01/25 08:36:04;;;;;;;1.77;1.42;;;;;;;2.15;92.20;101480.84;6321032;28;20040;-76
2023/01/25 08:39:07;;;;;;;2.58;1.55;;;;;;;2.06;92.97;101477.44;6319728;28;20048;-70
2023/01/25 08:42:08;;;;;;;1.48;1.02;;;;;;;2.06;93.68;101475.72;6319772;28;20070;-76
2023/01/25 08:45:12;;;;;;;2.47;1.27;;;;;;;2.10;92.77;101467.13;6319760;28;20044;-76
2023/01/25 08:48:18;;;;;;;0.70;0.68;;;;;;;2.18;93.46;101475.69;6319603;28;20550;-76
2023/01/25 08:51:19;;;;;;;1.48;1.38;;;;;;;2.30;93.32;101472.19;6319591;28;20036;-70
2023/01/25 08:54:20;;;;;;;1.33;1.05;;;;;;;2.29;92.42;101473.06;6320782;28;20051;-70
2023/01/25 08:57:20;;;;;;;0.73;0.65;;;;;;;2.45;92.36;101475.56;6322731;28;20101;-70
2023/01/25 09:00:24;;;;;;;2.78;1.23;;;;;;;2.57;91.43;101470.34;6324036;28;20043;-70
2023/01/25 09:03:25;;;;;;;1.02;0.57;;;;;;;2.51;91.42;101470.38;6323958;28;20073;-71
2023/01/25 09:06:26;;;;;;;1.60;1.40;;;;;;;2.47;92.95;101466.97;6323989;28;20497;-76
2023/01/25 09:09:28;;;;;;;1.33;1.08;;;;;;;2.55;91.25;101460.06;6324008;28;20044;-76
2023/01/25 09:12:30;;;;;;;;;;;;;;;2.91;92.41;101462.44;6322591;28;20288;-70
2023/01/25 09:15:33;;;;;;;2.03;1.42;;;;;;;2.92;91.18;101453.81;6324527;28;20338;-71
2023/01/25 09:18:39;;;;;;;3.00;1.58;;;;;;;2.98;89.51;101456.34;6323082;28;20040;-76
2023/01/25 09:21:40;;;;;;;1.48;1.25;;;;;;;3.06;89.26;101456.28;6324714;28;20067;-73
2023/01/25 09:24:42;;;;;;;12.43;1.70;;;;;;;3.22;89.08;101458.72;6323185;28;20039;-76
2023/01/25 09:27:45;;;;;;;2.33;1.58;;;;;;;2.78;89.03;101454.78;6324448;28;20040;-70
2023/01/25 09:30:53;;;;;;;2.25;1.48;;;;;;;2.99;88.09;101452.91;6324117;28;20059;-76
2023/01/25 09:33:56;;;;;;;2.88;1.70;;;;;;;2.98;88.46;101453.75;6324249;28;20101;-76
2023/01/25 09:36:58;;;;;;;2.45;1.67;;;;;;;3.22;89.64;101445.00;6323172;28;20435;-76
2023/01/25 09:40:00;;;;;;;1.70;0.95;;;;;;;3.43;88.58;101449.94;6324133;28;20381;-70
2023/01/25 09:43:01;;;;;;;1.52;1.23;;;;;;;3.16;88.55;101440.72;6322896;28;20036;-70
2023/01/25 09:46:13;;;;;;;2.70;1.67;;;;;;;3.01;88.50;101441.72;6322657;28;20036;-71
2023/01/25 09:49:35;;;;;;;3.50;1.95;;;;;;;2.97;89.48;101440.03;6323837;28;20134;-76
2023/01/25 09:52:52;;;;;;;2.08;1.30;;;;;;;3.18;89.02;101439.00;6323679;28;20040;-70
2023/01/25 09:55:58;;;;;;;1.30;1.15;;;;;;;3.27;87.56;101430.31;6323720;28;20106;-76
2023/01/25 09:59:04;;;;;;;5.13;1.63;;;;;;;3.10;90.78;101427.88;6323780;28;20381;-76
2023/01/25 10:02:21;;;;;;;4.00;2.28;;;;;;;2.95;88.95;101423.72;6322447;28;20523;-70
2023/01/25 10:05:27;;;;;;;2.50;1.33;;;;;;;3.08;90.31;101415.88;6323634;28;20048;-76
2023/01/25 10:08:39;;;;;;;3.00;1.40;;;;;;;2.97;91.19;101415.97;6322014;28;20476;-71
2023/01/25 10:11:42;;;;;;;1.55;0.98;;;;;;;3.13;90.84;101408.94;6322256;28;20123;-76
2023/01/25 10:14:43;;;;;;;1.85;1.38;;;;;;;3.06;90.03;101410.72;6322067;28;20036;-76
2023/01/25 10:17:59;;;;;;;3.17;2.08;;;;;;;2.99;92.65;101401.34;6322013;28;20041;-70
2023/01/25 10:21:13;;;;;;;7.95;2.17;;;;;;;3.09;89.96;101396.94;6321961;28;20044;-76
2023/01/25 10:24:23;;;;;;;3.20;1.98;;;;;;;2.99;91.28;101389.28;6321859;28;20400;-76
2023/01/25 10:27:39;;;;;;;3.25;2.38;;;;;;;3.18;89.78;101386.56;6321843;28;20075;-76
2023/01/25 10:30:52;;;;;;;8.00;2.20;;;;;;;2.67;94.29;101380.97;6322997;28;20044;-71
2023/01/25 10:33:58;;;;;;;2.60;1.63;;;;;;;2.85;93.79;101380.81;6321767;28;20044;-70
2023/01/25 10:37:12;;;;;;;5.50;1.45;;;;;;;2.92;92.86;101372.16;6321594;28;20095;-76
2023/01/25 10:40:17;;;;;;;10.25;1.88;;;;;;;3.03;92.60;101372.94;6321549;28;20109;-71
2023/01/25 10:43:20;;;;;;;4.25;2.20;;;;;;;3.09;92.89;101358.25;6321442;28;20044;-70
2023/01/25 10:46:23;;;;;;;3.83;2.20;;;;;;;3.07;92.61;101367.72;6322594;28;20062;-70
2023/01/25 10:49:46;;;;;;;4.80;2.55;;;;;;;3.00;91.74;101362.63;6322339;28;20067;-71
2023/01/25 10:52:57;;;;;;;1.90;1.02;;;;;;;2.94;92.72;101359.25;6321146;28;20044;-70
2023/01/25 10:56:10;;;;;;;5.47;2.42;;;;;;;2.79;93.05;101353.34;6321277;28;20044;-70
2023/01/25 10:59:24;;;;;;;5.68;2.90;;;;;;;2.73;94.35;101344.81;6320931;28;20068;-77
2023/01/25 11:02:34;;;;;;;3.05;1.90;;;;;;;2.76;94.44;101348.25;6320917;28;20127;-76
2023/01/25 11:05:36;;;;;;;5.63;2.40;;;;;;;2.69;94.45;101348.28;6322196;28;20380;-76
2023/01/25 11:08:41;;;;;;;2.83;1.65;;;;;;;2.59;95.65;101337.19;6321998;28;20044;-76
2023/01/25 11:11:53;;;;;;;1.90;1.30;;;;;;;2.48;96.95;101333.84;6321858;28;20042;-70
2023/01/25 11:14:54;;;;;;;2.97;2.00;;;;;;;2.50;95.57;101329.53;6320707;28;20078;-76
2023/01/25 11:18:17;;;;;;;4.50;2.60;;;;;;;2.58;96.63;101325.19;6321861;28;20040;-77
2023/01/25 11:21:22;;;;;;;5.57;2.75;;;;;;;2.42;97.69;101320.13;6321140;28;20032;-70
2023/01/25 11:24:28;;;;;;;3.50;2.92;;;;;;;2.42;97.97;101312.41;6321700;28;20036;-70
2023/01/25 11:27:29;;;;;;;5.15;2.85;;;;;;;2.78;95.37;101312.13;6321528;28;20044;-70
2023/01/25 11:30:33;;;;;;;4.50;2.40;;;;;;;2.95;95.39;101312.00;6319670;28;20044;-77
2023/01/25 11:33:34;;;;;;;3.83;2.42;;;;;;;2.75;94.41;101307.00;6321315;28;20043;-70
2023/01/25 11:36:38;;;;;;;9.45;3.00;;;;;;;2.58;94.89;101308.00;6321392;28;20060;-70
2023/01/25 11:40:16;;;;;;;6.45;2.83;;;;;;;2.37;96.09;101298.72;6321443;28;20067;-70
2023/01/25 11:43:56;;;;;;;10.50;2.45;;;;;;;2.46;96.41;101290.06;6321524;28;20044;-76
2023/01/25 11:47:23;;;;;;;3.30;2.65;;;;;;;2.34;97.97;101282.44;6306933;28;20495;-76
2023/01/25 11:50:44;;;;;;;4.55;2.03;;;;;;;2.34;96.69;101274.69;6319926;28;20048;-70
2023/01/25 11:54:20;;;;;;;4.07;2.35;;;;;;;2.54;95.67;101274.53;6321293;28;20488;-76
2023/01/25 11:57:53;;;;;;;6.13;3.13;;;;;;;2.44;97.34;101260.03;6306613;28;20530;-70
2023/01/25 12:01:12;;;;;;;5.40;3.28;;;;;;;2.40;97.78;101262.63;6298069;28;20502;-76
2023/01/25 12:04:35;;;;;;;4.30;2.35;;;;;;;2.37;98.46;101249.78;6321124;28;20068;-70
2023/01/25 12:08:09;;;;;;;6.82;3.15;;;;;;;2.60;98.99;101241.00;6321083;28;20044;-76
2023/01/25 12:11:29;;;;;;;4.25;3.10;;;;;;;2.74;97.28;101239.16;6321213;28;20499;-76
2023/01/25 12:14:45;;;;;;;18.08;3.63;;;;;;;2.65;99.13;101246.09;6319766;28;20040;-70
2023/01/25 12:17:51;;;;;;;6.82;4.20;;;;;;;2.62;99.05;101237.53;6319735;28;20044;-70
2023/01/25 12:21:05;;;;;;;4.15;2.58;;;;;;;2.43;99.80;101233.44;6321027;28;20036;-76
2023/01/25 12:24:24;;;;;;;10.18;4.32;;;;;;;2.79;99.92;101232.22;6319649;28;20044;-76
2023/01/25 12:27:33;;;;;;;5.88;3.50;;;;;;;2.74;97.98;101222.81;6319692;28;20480;-76
2023/01/25 12:30:41;;;;;;;9.75;3.88;;;;;;;2.77;98.03;101215.06;6321785;28;20044;-70
2023/01/25 12:33:46;;;;;;;12.30;5.85;;;;;;;2.77;98.97;101212.47;6325779;28;20040;-71
2023/01/25 12:36:49;;;;;;;7.32;3.72;;;;;;;2.87;98.05;101202.94;6324394;28;20040;-70
2023/01/25 12:40:00;;;;;;;9.68;4.35;;;;;;;2.79;99.00;101210.75;6324434;28;20043;-76
2023/01/25 12:43:02;;;;;;;6.28;3.05;;;;;;;2.77;99.48;101197.84;6325502;28;20046;-70
2023/01/25 12:46:46;;;;;;;16.97;5.30;;;;;;;2.60;100.00;101210.06;6324278;28;20047;-70
2023/01/25 12:50:13;;;;;;;14.43;5.13;;;;;;;2.61;100.00;101204.91;6314104;28;20775;-70
2023/01/25 12:53:28;;;;;;;6.68;3.53;;;;;;;2.44;100.00;101199.06;6325304;28;20043;-70
2023/01/25 12:56:47;;;;;;;16.45;4.63;;;;;;;2.70;100.00;101196.22;6325273;28;20043;-76
2023/01/25 13:00:05;;;;;;;12.93;4.22;;;;;;;2.52;100.00;101194.69;6325120;28;20063;-76
2023/01/25 13:03:33;;;;;;;21.23;5.32;;;;;;;2.65;100.00;101185.09;6323925;28;20051;-70
2023/01/25 13:06:46;;;;;;;12.73;5.00;;;;;;;2.51;100.00;101184.38;6324898;28;20036;-70
2023/01/25 13:09:56;;;;;;;;;;;;;;;2.53;100.00;101190.38;6325186;28;20071;-76
2023/01/25 13:13:02;;;;;;;11.13;4.55;;;;;;;2.40;100.00;101187.91;6324873;28;19919;-76
2023/01/25 13:16:37;;;;;;;8.25;4.82;;;;;;;2.46;100.00;101184.44;6324565;28;20040;-76
2023/01/25 13:19:41;;;;;;;15.20;6.00;;;;;;;2.39;100.00;101180.22;6312337;28;20058;-76
2023/01/25 13:22:42;;;;;;;11.02;4.60;;;;;;;2.59;100.00;101186.03;6324396;28;20044;-76
2023/01/25 13:25:43;;;;;;;6.95;2.88;;;;;;;2.42;100.00;101180.19;6323197;28;20551;-76
2023/01/25 13:28:46;;;;;;;17.50;5.10;;;;;;;2.46;100.00;101174.13;6324351;28;20040;-76
2023/01/25 13:31:48;;;;;;;16.70;5.22;;;;;;;2.57;100.00;101172.31;6323186;28;20043;-70
2023/01/25 13:34:49;;;;;;;;;;;;;;;2.34;100.00;101174.25;6324649;28;20090;-76
2023/01/25 13:38:23;;;;;;;10.63;4.55;;;;;;;2.44;100.00;101164.72;6324238;28;19995;-77
2023/01/25 13:41:26;;;;;;;12.32;4.85;;;;;;;2.19;100.00;101170.94;6322940;28;20059;-76
2023/01/25 13:44:31;;;;;;;8.93;4.93;;;;;;;2.39;100.00;101167.34;6323441;28;20047;-70
2023/01/25 13:47:37;;;;;;;11.80;6.43;;;;;;;2.24;100.00;101155.44;6322764;28;20389;-70
2023/01/25 13:50:51;;;;;;;11.57;4.38;;;;;;;2.49;100.00;101160.34;6324028;28;20039;-71
2023/01/25 13:53:55;;;;;;;17.42;6.88;;;;;;;2.42;100.00;101163.00;6323823;28;20032;-77
2023/01/25 13:57:11;;;;;;;14.05;4.65;;;;;;;2.53;100.00;101154.31;6323733;28;20047;-76
2023/01/25 14:00:19;;;;;;;7.40;4.28;;;;;;;2.44;100.00;101152.69;6323652;28;20123;-70
2023/01/25 14:03:25;;;;;;;11.80;5.00;;;;;;;2.37;100.00;101154.47;6322420;28;20097;-71
2023/01/25 14:06:40;;;;;;;16.73;4.15;;;;;;;2.40;100.00;101151.84;6323375;28;20040;-71
2023/01/25 14:09:45;;;;;;;14.55;6.38;;;;;;;2.56;100.00;101149.13;6322160;28;20101;-71
2023/01/25 14:12:46;;;;;;;9.55;3.65;;;;;;;2.57;100.00;101146.56;6323364;28;20037;-76
2023/01/25 14:15:58;;;;;;;12.63;4.70;;;;;;;2.44;100.00;101147.53;6323158;28;20082;-77
2023/01/25 14:19:29;;;;;;;14.32;5.53;;;;;;;2.54;100.00;101146.56;6323204;28;20040;-76
2023/01/25 14:22:31;;;;;;;11.85;5.30;;;;;;;2.54;100.00;101132.84;6314330;28;20052;-70
2023/01/25 14:25:32;;;;;;;14.32;5.38;;;;;;;2.60;100.00;101127.63;6321765;28;20580;-70
2023/01/25 14:28:33;;;;;;;20.40;5.23;;;;;;;2.47;100.00;101131.19;6321801;28;20044;-70